createdAt,value
2023-03-02T00:01:09.227Z,63.01
2023-03-02T00:03:40.883Z,63.36
2023-03-02T00:06:08.752Z,63.49
2023-03-02T00:08:36.341Z,63.94
2023-03-02T00:11:03.041Z,64.28
2023-03-02T00:13:31.542Z,64.83
2023-03-02T00:15:58.063Z,64.86
2023-03-02T00:18:24.505Z,65.08
2023-03-02T00:20:50.925Z,65.43
2023-03-02T00:23:17.373Z,65.47
2023-03-02T00:25:43.846Z,65.67
2023-03-02T00:28:10.254Z,65.26
2023-03-02T00:30:38.181Z,64.93
2023-03-02T00:33:04.823Z,65.58
2023-03-02T00:35:31.268Z,65.64
2023-03-02T00:37:57.691Z,65.66
2023-03-02T00:40:24.082Z,65.85
2023-03-02T00:42:50.473Z,65.80
2023-03-02T00:45:16.986Z,65.74
2023-03-02T00:47:43.380Z,65.99
2023-03-02T00:50:10.378Z,66.22
2023-03-02T00:52:36.779Z,66.19
2023-03-02T00:55:03.732Z,66.17
2023-03-02T00:57:30.277Z,66.58
2023-03-02T00:59:56.736Z,66.43
2023-03-02T01:02:28.549Z,66.30
2023-03-02T01:04:55.071Z,66.91
2023-03-02T01:07:22.215Z,67.03
2023-03-02T01:09:48.625Z,66.88
2023-03-02T01:12:15.934Z,66.74
2023-03-02T01:14:45.787Z,66.38
2023-03-02T01:17:12.958Z,67.12
2023-03-02T01:19:40.280Z,67.26
2023-03-02T01:22:07.758Z,67.28
2023-03-02T01:24:34.172Z,67.86
2023-03-02T01:27:00.607Z,67.78
2023-03-02T01:29:26.981Z,67.32
2023-03-02T01:31:53.652Z,68.40
2023-03-02T01:34:20.201Z,68.61
2023-03-02T01:36:46.582Z,68.32
2023-03-02T01:39:16.782Z,67.83
2023-03-02T01:41:44.961Z,68.01
2023-03-02T01:44:35.792Z,68.37
2023-03-02T01:47:25.699Z,67.64
2023-03-02T01:50:02.693Z,68.06
2023-03-02T01:52:38.289Z,67.66
2023-03-02T01:55:09.203Z,67.75
2023-03-02T01:57:43.488Z,67.80
2023-03-02T02:00:15.628Z,67.81
2023-03-02T02:02:42.430Z,67.67
2023-03-02T02:05:16.026Z,68.17
2023-03-02T02:07:43.866Z,68.00
2023-03-02T02:10:10.930Z,68.10
2023-03-02T02:12:37.423Z,67.30
2023-03-02T02:15:04.802Z,67.19
2023-03-02T02:17:32.619Z,67.73
2023-03-02T02:20:28.325Z,66.43
2023-03-02T02:23:27.868Z,66.10
2023-03-02T02:26:03.401Z,65.68
2023-03-02T02:28:35.904Z,66.14
2023-03-02T02:31:11.363Z,66.31
2023-03-02T02:33:41.374Z,65.83
2023-03-02T02:36:14.431Z,65.73
2023-03-02T02:38:42.440Z,66.15
2023-03-02T02:41:16.816Z,65.55
2023-03-02T02:43:43.299Z,65.86
2023-03-02T02:46:11.652Z,65.56
2023-03-02T02:48:39.305Z,65.61
2023-03-02T02:51:09.053Z,66.15
2023-03-02T02:53:43.819Z,66.00
2023-03-02T02:56:12.037Z,65.78
2023-03-02T02:58:44.126Z,65.99
2023-03-02T03:01:18.979Z,66.86
2023-03-02T03:03:56.093Z,67.06
2023-03-02T03:06:26.880Z,66.97
2023-03-02T03:08:58.051Z,67.25
2023-03-02T03:11:44.779Z,67.43
2023-03-02T03:14:15.290Z,67.06
2023-03-02T03:16:46.961Z,66.71
2023-03-02T03:19:22.624Z,66.31
2023-03-02T03:21:52.882Z,66.34
2023-03-02T03:24:21.256Z,67.60
2023-03-02T03:26:48.847Z,67.84
2023-03-02T03:29:16.983Z,67.19
2023-03-02T03:31:44.582Z,67.88
2023-03-02T03:34:12.398Z,67.89
2023-03-02T03:36:38.897Z,67.63
2023-03-02T03:39:06.521Z,67.73
2023-03-02T03:41:33.541Z,67.22
2023-03-02T03:44:00.642Z,67.58
2023-03-02T03:46:29.738Z,67.93
2023-03-02T03:48:57.043Z,68.26
2023-03-02T03:51:24.110Z,68.20
2023-03-02T03:53:59.681Z,67.62
2023-03-02T03:56:33.329Z,67.53
2023-03-02T03:59:07.026Z,68.15
2023-03-02T04:01:56.762Z,68.25
2023-03-02T04:04:28.536Z,68.26
2023-03-02T04:06:55.832Z,67.75
2023-03-02T04:09:24.189Z,67.52
2023-03-02T04:11:54.039Z,67.96
2023-03-02T04:14:22.952Z,67.11
2023-03-02T04:16:50.954Z,67.81
2023-03-02T04:19:18.014Z,67.69
2023-03-02T04:21:50.526Z,67.96
2023-03-02T04:24:20.589Z,67.14
2023-03-02T04:26:48.985Z,67.61
2023-03-02T04:29:17.115Z,68.04
2023-03-02T04:31:43.922Z,67.88
2023-03-02T04:34:11.931Z,68.45
2023-03-02T04:36:41.582Z,68.53
2023-03-02T04:39:14.290Z,67.52
2023-03-02T04:41:41.857Z,67.64
2023-03-02T04:44:08.289Z,68.34
2023-03-02T04:46:35.426Z,68.38
2023-03-02T04:49:02.335Z,68.08
2023-03-02T04:51:32.385Z,67.95
2023-03-02T04:54:02.527Z,68.29
2023-03-02T04:56:29.196Z,69.08
2023-03-02T04:58:56.286Z,69.08
2023-03-02T05:01:24.003Z,69.16
2023-03-02T05:03:50.660Z,69.50
2023-03-02T05:06:17.599Z,70.35
2023-03-02T05:08:44.955Z,69.80
2023-03-02T05:11:21.883Z,70.15
2023-03-02T05:13:50.343Z,70.17
2023-03-02T05:16:16.797Z,70.65
2023-03-02T05:18:43.264Z,70.65
2023-03-02T05:21:10.346Z,71.02
2023-03-02T05:23:36.747Z,70.59
2023-03-02T05:26:03.187Z,70.51
2023-03-02T05:28:29.626Z,70.00
2023-03-02T05:30:56.023Z,69.09
2023-03-02T05:33:22.547Z,69.29
2023-03-02T05:35:49.194Z,68.53
2023-03-02T05:38:16.290Z,68.96
2023-03-02T05:40:43.017Z,69.04
2023-03-02T05:43:10.422Z,68.60
2023-03-02T05:45:38.456Z,67.77
2023-03-02T05:48:05.927Z,67.38
2023-03-02T05:50:33.096Z,67.58
2023-03-02T05:53:02.260Z,67.61
2023-03-02T05:55:29.039Z,67.99
2023-03-02T05:57:55.481Z,67.51
2023-03-02T06:00:22.444Z,67.73
2023-03-02T06:02:49.161Z,68.08
2023-03-02T06:05:19.074Z,68.34
2023-03-02T06:07:45.951Z,68.19
2023-03-02T06:10:13.235Z,68.08
2023-03-02T06:12:40.367Z,68.30
2023-03-02T06:15:08.120Z,69.23
2023-03-02T06:17:34.967Z,69.58
2023-03-02T06:20:01.617Z,68.99
2023-03-02T06:22:27.998Z,69.60
2023-03-02T06:24:55.210Z,69.78
2023-03-02T06:27:21.770Z,69.99
2023-03-02T06:29:48.186Z,70.43
2023-03-02T06:32:14.665Z,70.89
2023-03-02T06:34:41.151Z,70.88
2023-03-02T06:37:07.557Z,70.88
2023-03-02T06:39:34.131Z,70.78
2023-03-02T06:42:00.616Z,70.58
2023-03-02T06:44:27.041Z,70.23
2023-03-02T06:46:53.455Z,70.58
2023-03-02T06:49:19.865Z,70.89
2023-03-02T06:51:46.295Z,70.21
2023-03-02T06:54:13.107Z,69.51
2023-03-02T06:56:41.070Z,70.01
2023-03-02T06:59:07.725Z,69.66
2023-03-02T07:01:36.191Z,69.27
2023-03-02T07:04:03.495Z,69.21
2023-03-02T07:06:29.975Z,69.12
2023-03-02T07:08:56.344Z,69.47
2023-03-02T07:11:22.747Z,68.77
2023-03-02T07:13:49.645Z,67.86
2023-03-02T07:16:16.406Z,68.85
2023-03-02T07:18:43.251Z,67.67
2023-03-02T07:21:09.859Z,67.45
2023-03-02T07:23:36.393Z,67.64
2023-03-02T07:26:05.077Z,66.62
2023-03-02T07:28:31.463Z,66.07
2023-03-02T07:30:57.885Z,66.88
2023-03-02T07:33:24.292Z,66.36
2023-03-02T07:35:50.828Z,66.19
2023-03-02T07:38:17.212Z,66.21
2023-03-02T07:40:45.336Z,66.01
2023-03-02T07:43:11.908Z,65.39
2023-03-02T07:45:38.842Z,64.95
2023-03-02T07:48:05.621Z,64.22
2023-03-02T07:50:32.468Z,64.47
2023-03-02T07:53:00.083Z,63.75
2023-03-02T07:55:27.364Z,64.24
2023-03-02T07:57:53.821Z,64.04
2023-03-02T08:00:20.990Z,63.67
2023-03-02T08:02:47.591Z,62.88
2023-03-02T08:05:14.176Z,62.54
2023-03-02T08:07:40.855Z,62.80
2023-03-02T08:10:07.795Z,62.40
2023-03-02T08:12:34.212Z,62.66
2023-03-02T08:15:01.714Z,61.34
2023-03-02T08:17:29.816Z,62.77
2023-03-02T08:19:56.224Z,62.03
2023-03-02T08:22:22.604Z,62.26
2023-03-02T08:24:48.976Z,61.24
2023-03-02T08:27:15.839Z,61.58
2023-03-02T08:29:42.228Z,61.17
2023-03-02T08:32:08.754Z,62.32
2023-03-02T08:34:35.323Z,60.57
2023-03-02T08:37:01.777Z,60.29
2023-03-02T08:39:30.295Z,60.52
2023-03-02T08:41:58.132Z,60.59
2023-03-02T08:44:24.570Z,59.30
2023-03-02T08:46:52.138Z,58.16
2023-03-02T08:49:19.434Z,58.40
2023-03-02T08:51:46.882Z,58.31
2023-03-02T08:54:13.401Z,58.14
2023-03-02T08:56:41.225Z,57.76
2023-03-02T08:59:12.279Z,57.45
2023-03-02T09:01:40.093Z,57.32
2023-03-02T09:04:08.691Z,57.63
2023-03-02T09:06:38.440Z,56.12
2023-03-02T09:09:06.705Z,56.04
2023-03-02T09:11:33.890Z,55.32
2023-03-02T09:14:00.721Z,54.96
2023-03-02T09:16:27.387Z,53.93
2023-03-02T09:18:54.542Z,53.81
2023-03-02T09:21:21.957Z,53.79
2023-03-02T09:23:48.434Z,53.44
2023-03-02T09:26:14.826Z,52.34
2023-03-02T09:28:41.209Z,52.00
2023-03-02T09:31:08.628Z,51.60
2023-03-02T09:33:35.155Z,51.65
2023-03-02T09:36:06.940Z,51.04
2023-03-02T09:38:33.438Z,50.99
2023-03-02T09:41:18.306Z,50.33
2023-03-02T09:44:01.826Z,49.70
2023-03-02T09:46:44.195Z,49.47
2023-03-02T09:49:33.132Z,49.59
2023-03-02T09:52:11.488Z,48.58
2023-03-02T09:54:40.091Z,48.34
2023-03-02T09:57:21.694Z,47.89
2023-03-02T10:00:06.645Z,47.55
2023-03-02T10:03:11.376Z,47.41
2023-03-02T10:05:51.526Z,47.59
2023-03-02T10:08:24.433Z,47.63
2023-03-02T10:10:59.770Z,61.97
2023-03-02T10:13:40.626Z,54.96
2023-03-02T10:16:18.653Z,49.58
2023-03-02T10:18:51.858Z,46.99
2023-03-02T10:21:24.905Z,45.91
2023-03-02T10:24:14.935Z,46.02
2023-03-02T10:26:48.295Z,46.96
2023-03-02T10:29:14.600Z,46.62
2023-03-02T10:31:41.515Z,45.80
2023-03-02T10:34:10.864Z,45.89
2023-03-02T10:36:40.751Z,45.63
2023-03-02T10:39:14.064Z,45.88
2023-03-02T10:41:49.457Z,45.46
2023-03-02T10:44:22.856Z,45.42
2023-03-02T10:46:49.411Z,45.10
2023-03-02T10:49:34.161Z,43.89
2023-03-02T10:52:12.761Z,43.51
2023-03-02T10:54:39.838Z,43.48
2023-03-02T10:57:24.998Z,42.17
2023-03-02T10:59:52.115Z,42.81
2023-03-02T11:02:27.691Z,42.86
2023-03-02T11:04:58.045Z,42.23
2023-03-02T11:07:28.575Z,42.00
2023-03-02T11:10:01.882Z,41.13
2023-03-02T11:12:29.692Z,39.82
2023-03-02T11:15:16.119Z,39.24
2023-03-02T11:17:45.565Z,38.77
2023-03-02T11:20:28.907Z,38.34
2023-03-02T11:23:10.208Z,36.82
2023-03-02T11:25:40.427Z,36.14
2023-03-02T11:28:22.552Z,35.20
2023-03-02T11:30:53.295Z,34.92
2023-03-02T11:33:34.510Z,33.74
2023-03-02T11:36:15.261Z,32.90
2023-03-02T11:38:48.577Z,32.30
2023-03-02T11:41:27.243Z,31.98
2023-03-02T11:43:54.685Z,31.51
2023-03-02T11:46:30.511Z,31.37
2023-03-02T11:49:01.950Z,31.00
2023-03-02T11:51:50.006Z,30.47
2023-03-02T11:54:36.765Z,30.03
2023-03-02T11:57:04.709Z,29.81
2023-03-02T11:59:33.263Z,29.52
2023-03-02T12:02:01.256Z,29.40
2023-03-02T12:04:34.586Z,28.80
2023-03-02T12:07:04.563Z,28.57
2023-03-02T12:09:36.687Z,28.78
2023-03-02T12:12:33.288Z,28.68
2023-03-02T12:15:00.161Z,28.21
2023-03-02T12:17:26.480Z,28.06
2023-03-02T12:20:14.507Z,27.62
2023-03-02T12:22:42.079Z,27.38
2023-03-02T12:25:20.363Z,26.74
2023-03-02T12:27:49.341Z,26.96
2023-03-02T12:30:15.990Z,26.88
2023-03-02T12:32:58.247Z,26.69
2023-03-02T12:35:26.185Z,26.62
2023-03-02T12:38:02.966Z,26.36
2023-03-02T12:40:57.491Z,26.25
2023-03-02T12:43:29.361Z,26.25
2023-03-02T12:46:23.441Z,26.08
2023-03-02T12:49:05.111Z,25.68
2023-03-02T12:51:51.658Z,25.72
2023-03-02T12:54:21.263Z,25.48
2023-03-02T12:56:48.653Z,25.54
2023-03-02T12:59:27.565Z,25.24
2023-03-02T13:02:24.052Z,25.26
2023-03-02T13:04:55.148Z,25.16
2023-03-02T13:07:25.573Z,25.24
2023-03-02T13:09:56.886Z,24.99
2023-03-02T13:12:28.003Z,24.80
2023-03-02T13:14:57.758Z,24.66
2023-03-02T13:17:32.383Z,24.59
2023-03-02T13:20:01.283Z,24.45
2023-03-02T13:22:28.268Z,24.42
2023-03-02T13:25:08.108Z,24.38
2023-03-02T13:27:34.918Z,24.31
2023-03-02T13:30:29.352Z,24.26
2023-03-02T13:33:01.567Z,24.02
2023-03-02T13:35:31.163Z,23.67
2023-03-02T13:38:13.542Z,24.04
2023-03-02T13:40:44.581Z,23.95
2023-03-02T13:43:26.634Z,23.72
2023-03-02T13:46:23.909Z,24.08
2023-03-02T13:49:13.953Z,23.77
2023-03-02T13:51:49.019Z,23.81
2023-03-02T13:54:22.423Z,23.66
2023-03-02T13:56:51.036Z,23.45
2023-03-02T13:59:19.301Z,23.45
2023-03-02T14:01:46.171Z,23.29
2023-03-02T14:04:23.012Z,23.41
2023-03-02T14:06:51.356Z,23.46
2023-03-02T14:09:18.091Z,23.33
2023-03-02T14:11:50.668Z,23.34
2023-03-02T14:14:20.912Z,23.42
2023-03-02T14:16:47.309Z,23.70
2023-03-02T14:19:18.107Z,23.70
2023-03-02T14:21:45.654Z,23.84
2023-03-02T14:24:12.130Z,23.93
2023-03-02T14:26:43.370Z,24.34
2023-03-02T14:29:28.516Z,24.45
2023-03-02T14:31:56.571Z,24.63
2023-03-02T14:34:23.488Z,24.75
2023-03-02T14:36:54.295Z,24.71
2023-03-02T14:39:40.490Z,24.67
2023-03-02T14:42:12.816Z,24.93
2023-03-02T14:44:40.417Z,24.89
2023-03-02T14:47:07.411Z,24.98
2023-03-02T14:49:33.834Z,25.21
2023-03-02T14:52:05.023Z,25.27
2023-03-02T14:54:54.343Z,25.55
2023-03-02T14:57:25.453Z,25.59
2023-03-02T14:59:52.683Z,25.90
2023-03-02T15:02:25.700Z,26.01
2023-03-02T15:04:56.072Z,26.62
2023-03-02T15:07:24.804Z,26.51
2023-03-02T15:09:51.249Z,27.12
2023-03-02T15:12:17.754Z,27.35
2023-03-02T15:14:44.126Z,27.58
2023-03-02T15:17:10.744Z,27.71
2023-03-02T15:19:37.196Z,27.94
2023-03-02T15:22:04.367Z,28.29
2023-03-02T15:24:33.245Z,28.32
2023-03-02T15:27:01.263Z,28.50
2023-03-02T15:29:27.687Z,28.57
2023-03-02T15:31:54.297Z,28.81
2023-03-02T15:34:20.918Z,28.70
2023-03-02T15:36:47.302Z,29.07
2023-03-02T15:39:14.386Z,29.47
2023-03-02T15:41:44.072Z,29.55
2023-03-02T15:44:21.750Z,29.63
2023-03-02T15:46:49.416Z,29.98
2023-03-02T15:49:15.906Z,30.08
2023-03-02T15:51:42.359Z,30.64
2023-03-02T15:54:10.712Z,30.17
2023-03-02T15:56:44.076Z,30.66
2023-03-02T15:59:11.960Z,30.56
2023-03-02T16:01:38.404Z,30.60
2023-03-02T16:04:04.866Z,30.68
2023-03-02T16:06:31.785Z,30.88
2023-03-02T16:08:58.482Z,31.23
2023-03-02T16:11:24.928Z,31.48
2023-03-02T16:13:52.044Z,32.12
2023-03-02T16:16:20.583Z,32.36
2023-03-02T16:18:51.318Z,32.82
2023-03-02T16:21:18.120Z,33.08
2023-03-02T16:23:45.195Z,33.41
2023-03-02T16:26:14.769Z,33.74
2023-03-02T16:28:42.462Z,34.46
2023-03-02T16:31:12.096Z,34.92
2023-03-02T16:33:38.676Z,35.71
2023-03-02T16:36:05.410Z,36.54
2023-03-02T16:38:31.977Z,37.31
2023-03-02T16:40:58.359Z,37.71
2023-03-02T16:43:26.011Z,38.44
2023-03-02T16:45:52.493Z,39.15
2023-03-02T16:48:19.305Z,39.42
2023-03-02T16:50:45.772Z,39.86
2023-03-02T16:53:14.755Z,40.27
2023-03-02T16:55:41.170Z,40.49
2023-03-02T16:58:07.790Z,40.68
2023-03-02T17:00:34.217Z,40.71
2023-03-02T17:03:00.700Z,40.64
2023-03-02T17:05:27.203Z,40.53
2023-03-02T17:07:53.631Z,40.64
2023-03-02T17:10:21.678Z,41.02
2023-03-02T17:12:48.137Z,41.61
2023-03-02T17:15:14.928Z,42.33
2023-03-02T17:17:41.541Z,43.32
2023-03-02T17:20:10.431Z,44.24
2023-03-02T17:22:37.011Z,45.41
2023-03-02T17:25:04.853Z,46.54
2023-03-02T17:27:31.412Z,47.84
2023-03-02T17:29:57.924Z,48.82
2023-03-02T17:32:24.516Z,49.76
2023-03-02T17:34:51.060Z,50.70
2023-03-02T17:37:17.549Z,51.16
2023-03-02T17:39:44.162Z,51.98
2023-03-02T17:42:10.543Z,53.48
2023-03-02T17:44:40.401Z,54.01
2023-03-02T17:47:08.239Z,55.25
2023-03-02T17:49:38.385Z,56.11
2023-03-02T17:52:04.797Z,56.33
2023-03-02T17:54:31.219Z,57.51
2023-03-02T17:56:57.647Z,58.19
2023-03-02T17:59:24.121Z,59.19
2023-03-02T18:01:50.542Z,59.04
2023-03-02T18:04:17.019Z,59.47
2023-03-02T18:06:43.440Z,60.29
2023-03-02T18:09:10.126Z,60.52
2023-03-02T18:11:37.293Z,60.63
2023-03-02T18:14:03.751Z,61.20
2023-03-02T18:16:30.796Z,61.19
2023-03-02T18:18:57.670Z,61.71
2023-03-02T18:21:24.149Z,61.84
2023-03-02T18:23:50.642Z,62.04
2023-03-02T18:26:17.386Z,62.34
2023-03-02T18:28:43.921Z,62.77
2023-03-02T18:31:14.060Z,62.75
2023-03-02T18:33:40.680Z,63.42
2023-03-02T18:36:07.668Z,63.41
2023-03-02T18:38:35.365Z,63.75
2023-03-02T18:41:04.146Z,63.65
2023-03-02T18:43:34.565Z,64.46
2023-03-02T18:46:03.887Z,64.99
2023-03-02T18:48:31.240Z,64.90
2023-03-02T18:50:58.040Z,65.49
2023-03-02T18:53:25.029Z,65.84
2023-03-02T18:55:54.665Z,66.38
2023-03-02T18:58:22.935Z,66.55
2023-03-02T19:00:49.653Z,66.99
2023-03-02T19:03:17.248Z,67.39
2023-03-02T19:05:44.086Z,67.65
2023-03-02T19:08:11.643Z,68.54
2023-03-02T19:10:39.603Z,68.34
2023-03-02T19:13:06.063Z,68.54
2023-03-02T19:15:34.802Z,68.71
2023-03-02T19:18:01.424Z,69.30
2023-03-02T19:20:27.842Z,69.64
2023-03-02T19:22:55.280Z,70.26
2023-03-02T19:25:22.351Z,70.57
2023-03-02T19:27:49.097Z,71.41
2023-03-02T19:30:22.736Z,72.26
2023-03-02T19:32:49.219Z,72.67
2023-03-02T19:35:19.927Z,72.96
2023-03-02T19:37:47.059Z,73.55
2023-03-02T19:40:15.314Z,74.01
2023-03-02T19:42:41.918Z,74.42
2023-03-02T19:45:12.398Z,74.62
2023-03-02T19:47:38.833Z,75.06
2023-03-02T19:50:06.336Z,75.62
2023-03-02T19:52:32.915Z,76.04
2023-03-02T19:54:59.284Z,76.52
2023-03-02T19:57:25.853Z,76.82
2023-03-02T19:59:52.603Z,77.01
2023-03-02T20:02:19.549Z,77.22
2023-03-02T20:04:46.725Z,77.63
2023-03-02T20:07:13.811Z,78.39
2023-03-02T20:09:42.170Z,78.85
2023-03-02T20:12:09.199Z,78.84
2023-03-02T20:14:35.973Z,79.10
2023-03-02T20:17:03.285Z,79.33
2023-03-02T20:19:29.884Z,79.66
2023-03-02T20:21:56.543Z,80.01
2023-03-02T20:24:23.280Z,80.34
2023-03-02T20:26:49.713Z,80.50
2023-03-02T20:29:17.083Z,80.93
2023-03-02T20:31:43.600Z,80.72
2023-03-02T20:34:11.984Z,80.63
2023-03-02T20:36:38.419Z,80.71
2023-03-02T20:39:28.467Z,80.71
2023-03-02T20:41:55.523Z,81.14
2023-03-02T20:44:23.756Z,81.12
2023-03-02T20:46:54.722Z,81.26
2023-03-02T20:49:22.977Z,81.22
2023-03-02T20:51:52.839Z,81.47
2023-03-02T20:54:22.325Z,82.04
2023-03-02T20:56:48.997Z,82.37
2023-03-02T20:59:16.029Z,82.76
2023-03-02T21:01:42.952Z,82.73
2023-03-02T21:04:09.986Z,82.97
2023-03-02T21:06:36.698Z,83.15
2023-03-02T21:09:05.740Z,83.37
2023-03-02T21:11:33.310Z,83.20
2023-03-02T21:14:01.908Z,83.42
2023-03-02T21:16:35.902Z,83.59
2023-03-02T21:19:05.876Z,83.98
2023-03-02T21:21:41.329Z,84.20
2023-03-02T21:24:10.927Z,84.64
2023-03-02T21:26:38.329Z,84.51
2023-03-02T21:29:05.676Z,85.29
2023-03-02T21:31:32.566Z,85.57
2023-03-02T21:34:00.046Z,85.56
2023-03-02T21:36:27.505Z,85.93
2023-03-02T21:38:54.195Z,86.29
2023-03-02T21:41:20.950Z,86.72
2023-03-02T21:43:48.012Z,86.93
2023-03-02T21:46:17.696Z,86.91
2023-03-02T21:48:44.509Z,87.20
2023-03-02T21:51:12.401Z,87.27
2023-03-02T21:53:39.407Z,87.96
2023-03-02T21:56:06.685Z,88.21
2023-03-02T21:58:33.149Z,88.34
2023-03-02T22:01:00.028Z,88.90
2023-03-02T22:03:26.744Z,89.05
2023-03-02T22:05:53.179Z,89.33
2023-03-02T22:08:20.719Z,89.26
2023-03-02T22:10:49.229Z,89.72
2023-03-02T22:13:33.429Z,90.09
2023-03-02T22:16:11.138Z,90.17
2023-03-02T22:18:38.512Z,90.37
2023-03-02T22:21:28.477Z,90.47
2023-03-02T22:24:19.249Z,91.22
2023-03-02T22:27:22.972Z,91.39
2023-03-02T22:29:51.029Z,91.65
2023-03-02T22:32:23.195Z,91.91
2023-03-02T22:34:55.102Z,92.16
2023-03-02T22:37:25.932Z,92.61
2023-03-02T22:39:55.683Z,93.01
2023-03-02T22:42:24.925Z,93.48
2023-03-02T22:45:15.739Z,93.97
2023-03-02T22:47:43.949Z,93.97
2023-03-02T22:50:27.572Z,94.42
2023-03-02T22:52:55.103Z,95.31
2023-03-02T22:55:42.104Z,95.77
2023-03-02T22:58:26.987Z,96.17
2023-03-02T23:00:54.316Z,96.58
2023-03-02T23:03:42.634Z,96.65
2023-03-02T23:06:32.966Z,96.60
2023-03-02T23:09:02.478Z,96.27
2023-03-02T23:11:33.871Z,96.08
2023-03-02T23:14:01.743Z,96.00
2023-03-02T23:16:35.874Z,95.61
2023-03-02T23:19:03.065Z,95.57
2023-03-02T23:21:38.571Z,95.72
2023-03-02T23:24:07.508Z,96.19
2023-03-02T23:26:34.700Z,96.83
2023-03-02T23:29:01.129Z,96.98
2023-03-02T23:31:27.698Z,97.23
2023-03-02T23:33:54.363Z,97.33
2023-03-02T23:36:21.206Z,97.70
2023-03-02T23:38:49.061Z,97.72
2023-03-02T23:41:15.775Z,97.75
2023-03-02T23:43:42.168Z,97.86
2023-03-02T23:46:08.752Z,97.85
2023-03-02T23:48:35.160Z,97.73
2023-03-02T23:51:01.543Z,97.48
2023-03-02T23:53:28.078Z,97.27
2023-03-02T23:55:54.956Z,97.37
2023-03-02T23:58:22.146Z,97.12
